Time;durP1;ratioP1;P1;durP2;ratioP2;P2;SDS_P1;SDS_P2;PMS_P1;PMS_P2;Temp;Humidity;BMP_temperature;BMP_pressure;BME280_temperature;BME280_humidity;BME280_pressure;Samples;Min_cycle;Max_cycle;Signal;HPM_P1;HPM_P2
2023/12/12 00:00:31;;;;;;;12.00;6.75;;;;;;;-1.63;100.00;98113.06;5119813;28;20091;-72
2023/12/12 00:02:57;;;;;;;21.90;10.35;;;;;;;-1.57;100.00;98117.97;5117654;28;20083;-66
2023/12/12 00:05:24;;;;;;;20.73;10.15;;;;;;;-1.37;100.00;98094.34;5119743;28;20101;-70
2023/12/12 00:07:51;;;;;;;24.55;10.25;;;;;;;-1.33;100.00;98098.78;5117534;28;20052;-70
2023/12/12 00:10:17;;;;;;;22.33;11.00;;;;;;;-1.26;100.00;98107.19;5119924;28;20058;-66
2023/12/12 00:12:44;;;;;;;21.05;11.18;;;;;;;-1.09;100.00;98101.06;5117404;28;20056;-66
2023/12/12 00:15:11;;;;;;;19.95;11.18;;;;;;;-1.51;100.00;98110.59;5119885;28;20055;-72
2023/12/12 00:17:38;;;;;;;24.42;11.52;;;;;;;-1.31;100.00;98095.78;5117375;28;20055;-69
2023/12/12 00:20:07;;;;;;;28.58;11.45;;;;;;;-1.00;100.00;98092.97;5119733;28;20056;-67
2023/12/12 00:22:34;;;;;;;31.83;12.05;;;;;;;-0.82;100.00;98118.81;5118169;28;20074;-72
2023/12/12 00:25:00;;;;;;;26.08;11.68;;;;;;;-1.11;100.00;98142.81;5117158;28;20143;-67
2023/12/12 00:27:26;;;;;;;23.98;10.60;;;;;;;-1.32;100.00;98156.03;5119265;28;20154;-73
2023/12/12 00:29:53;;;;;;;24.60;11.55;;;;;;;-1.27;100.00;98153.19;5117246;28;20083;-70
2023/12/12 00:32:19;;;;;;;23.55;10.88;;;;;;;-1.16;100.00;98154.50;5119562;28;20098;-67
2023/12/12 00:34:45;;;;;;;29.55;11.60;;;;;;;-0.93;100.00;98157.06;5117021;28;20417;-73
2023/12/12 00:37:12;;;;;;;24.85;10.80;;;;;;;-0.71;100.00;98167.72;5119427;28;20055;-66
2023/12/12 00:39:39;;;;;;;30.65;12.43;;;;;;;-0.86;100.00;98193.19;5117040;28;20416;-70
2023/12/12 00:42:05;;;;;;;18.85;9.82;;;;;;;-1.19;100.00;98203.53;5119176;28;20082;-72
2023/12/12 00:44:33;;;;;;;21.77;10.48;;;;;;;-1.23;100.00;98194.53;5116830;28;20142;-72
2023/12/12 00:47:00;;;;;;;26.67;11.00;;;;;;;-1.51;100.00;98188.53;5119325;28;20051;-69
2023/12/12 00:49:26;;;;;;;22.30;9.57;;;;;;;-1.38;100.00;98170.72;5116796;28;20109;-72
2023/12/12 00:51:52;;;;;;;25.75;10.95;;;;;;;-1.45;100.00;98165.78;5116688;28;20055;-67
2023/12/12 00:54:18;;;;;;;27.45;11.02;;;;;;;-1.38;100.00;98162.66;5119128;28;20163;-72
2023/12/12 00:56:47;;;;;;;24.35;11.70;;;;;;;-1.31;100.00;98161.09;5116680;28;20138;-70
2023/12/12 00:59:14;;;;;;;29.13;11.38;;;;;;;-1.25;100.00;98167.13;5118896;28;20066;-69
2023/12/12 01:01:40;;;;;;;29.58;12.35;;;;;;;-1.27;100.00;98161.25;5116541;28;20052;-72
2023/12/12 01:04:07;;;;;;;28.42;13.35;;;;;;;-1.06;100.00;98164.19;5118862;28;20109;-66
2023/12/12 01:06:34;;;;;;;27.08;11.98;;;;;;;-0.86;100.00;98169.00;5116544;28;20066;-68
2023/12/12 01:09:00;;;;;;;25.90;12.10;;;;;;;-1.39;100.00;98185.28;5118414;28;20052;-73
2023/12/12 01:11:26;;;;;;;28.50;11.70;;;;;;;-1.23;100.00;98173.78;5115725;28;20164;-69
2023/12/12 01:13:54;;;;;;;22.95;10.55;;;;;;;-1.26;100.00;98173.63;5118906;28;20082;-66
2023/12/12 01:16:20;;;;;;;22.38;10.82;;;;;;;-1.14;100.00;98162.25;5116341;28;20089;-71
2023/12/12 01:18:46;;;;;;;27.05;11.73;;;;;;;-0.86;100.00;98157.44;5117074;28;20052;-70
2023/12/12 01:21:12;;;;;;;23.95;12.25;;;;;;;-1.17;100.00;98165.56;5118328;28;20291;-68
2023/12/12 01:23:49;;;;;;;25.83;11.75;;;;;;;-1.26;100.00;98163.66;5116220;28;20468;-74
2023/12/12 01:26:15;;;;;;;29.05;11.95;;;;;;;-1.24;100.00;98168.72;5118564;28;20203;-73
2023/12/12 01:28:42;;;;;;;23.75;9.75;;;;;;;-1.19;100.00;98155.94;5116152;28;20055;-70
2023/12/12 01:31:09;;;;;;;20.80;10.05;;;;;;;-1.21;100.00;98142.00;5118597;28;20055;-68
2023/12/12 01:33:35;;;;;;;34.65;13.18;;;;;;;-1.39;100.00;98145.75;5116196;28;20148;-72
2023/12/12 01:36:02;;;;;;;25.85;11.18;;;;;;;-1.22;100.00;98128.88;5118567;28;20105;-65
2023/12/12 01:38:28;;;;;;;23.35;11.65;;;;;;;-1.40;100.00;98129.91;5116058;28;20066;-66
2023/12/12 01:40:54;;;;;;;28.85;11.93;;;;;;;-1.05;100.00;98109.28;5118580;28;20375;-73
2023/12/12 01:43:24;;;;;;;24.55;11.23;;;;;;;-1.24;100.00;98112.25;5115715;28;20051;-70
2023/12/12 01:45:50;;;;;;;30.25;11.00;;;;;;;-1.28;100.00;98120.13;5116071;28;20087;-72
2023/12/12 01:48:17;;;;;;;19.45;9.50;;;;;;;-1.33;100.00;98116.78;5101608;28;20109;-74
2023/12/12 01:50:44;;;;;;;22.77;9.85;;;;;;;-1.40;100.00;98106.50;5115747;28;20110;-66
2023/12/12 01:53:10;;;;;;;25.80;10.40;;;;;;;-1.26;100.00;98101.03;5117916;28;20056;-67
2023/12/12 01:55:37;;;;;;;27.58;12.35;;;;;;;-1.25;100.00;98097.22;5115707;28;20138;-74
2023/12/12 01:58:03;;;;;;;28.75;13.05;;;;;;;-1.13;100.00;98097.41;5118019;28;20060;-73
2023/12/12 02:00:30;;;;;;;31.10;13.15;;;;;;;-1.11;100.00;98097.88;5115784;28;20105;-71
2023/12/12 02:02:57;;;;;;;31.23;13.05;;;;;;;-1.47;100.00;98108.84;5117992;28;20087;-72
2023/12/12 02:05:26;;;;;;;31.20;11.90;;;;;;;-1.22;100.00;98093.91;5115554;28;20310;-74
2023/12/12 02:07:54;;;;;;;32.25;12.73;;;;;;;-1.29;100.00;98096.28;5118118;28;20144;-73
2023/12/12 02:10:21;;;;;;;29.00;11.50;;;;;;;-1.05;100.00;98087.75;5115472;28;20093;-67
2023/12/12 02:12:48;;;;;;;22.25;10.40;;;;;;;-1.19;100.00;98095.97;5116152;28;20065;-66
2023/12/12 02:15:15;;;;;;;22.90;11.10;;;;;;;-1.49;100.00;98095.72;5117325;28;20417;-69
2023/12/12 02:17:41;;;;;;;30.10;11.07;;;;;;;-1.23;100.00;98070.81;5115612;28;20099;-73
2023/12/12 02:20:08;;;;;;;28.50;12.50;;;;;;;-1.11;100.00;98062.91;5117590;28;20134;-67
2023/12/12 02:22:35;;;;;;;35.28;11.10;;;;;;;-1.16;100.00;98060.38;5114811;28;20098;-69
2023/12/12 02:25:02;;;;;;;22.80;11.43;;;;;;;-1.13;100.00;98056.25;5117751;28;20082;-70
2023/12/12 02:27:28;;;;;;;38.25;12.02;;;;;;;-0.98;100.00;98061.97;5115055;28;20095;-66
2023/12/12 02:29:55;;;;;;;29.63;13.45;;;;;;;-0.88;100.00;98065.47;5117756;28;20141;-68
2023/12/12 02:32:21;;;;;;;35.47;14.45;;;;;;;-0.65;100.00;98063.41;5115279;28;20051;-72
2023/12/12 02:34:48;;;;;;;28.95;13.38;;;;;;;-1.04;100.00;98081.28;5117655;28;20055;-67
2023/12/12 02:37:14;;;;;;;28.98;12.75;;;;;;;-1.11;100.00;98079.03;5115068;28;20058;-72
2023/12/12 02:39:42;;;;;;;28.55;12.40;;;;;;;-1.06;100.00;98070.84;5117005;28;20094;-67
2023/12/12 02:42:09;;;;;;;30.33;12.48;;;;;;;-1.15;100.00;98071.94;5116124;28;20063;-73
2023/12/12 02:44:35;;;;;;;37.05;14.15;;;;;;;-0.88;100.00;98062.78;5114863;28;20095;-70
2023/12/12 02:47:01;;;;;;;26.45;10.27;;;;;;;-1.16;100.00;98063.06;5117039;28;20463;-67
2023/12/12 02:49:27;;;;;;;33.05;12.48;;;;;;;-1.23;100.00;98070.81;5114814;28;20059;-72
2023/12/12 02:51:54;;;;;;;41.53;13.57;;;;;;;-1.06;100.00;98065.47;5117345;28;20109;-66
2023/12/12 02:54:20;;;;;;;37.58;15.30;;;;;;;-1.06;100.00;98062.75;5114950;28;20066;-72
2023/12/12 02:56:47;;;;;;;44.10;16.63;;;;;;;-0.87;100.00;98040.91;5117200;28;20105;-67
2023/12/12 02:59:13;;;;;;;55.53;13.90;;;;;;;-0.95;100.00;98050.56;5114698;28;20436;-68
2023/12/12 03:01:40;;;;;;;61.00;16.13;;;;;;;-0.95;100.00;98066.72;5116996;28;20087;-72
2023/12/12 03:04:06;;;;;;;38.60;15.20;;;;;;;-0.67;100.00;98071.00;5114504;28;20055;-66
2023/12/12 03:06:32;;;;;;;29.60;14.15;;;;;;;-1.32;100.00;98078.06;5117184;28;20140;-73
2023/12/12 03:08:59;;;;;;;36.65;14.30;;;;;;;-1.02;100.00;98058.34;5114556;28;20094;-69
2023/12/12 03:11:25;;;;;;;51.65;14.38;;;;;;;-0.93;100.00;98049.47;5114860;28;20093;-70
2023/12/12 03:13:52;;;;;;;38.42;14.90;;;;;;;-1.10;100.00;98047.56;5116675;28;20128;-72
2023/12/12 03:16:18;;;;;;;36.72;12.60;;;;;;;-1.18;100.00;98041.06;5114726;28;20086;-68
2023/12/12 03:18:45;;;;;;;60.42;16.17;;;;;;;-0.97;100.00;98031.28;5116765;28;20083;-74
2023/12/12 03:21:11;;;;;;;34.05;14.80;;;;;;;-1.16;100.00;98028.09;5114391;28;20097;-66
2023/12/12 03:23:37;;;;;;;47.67;17.30;;;;;;;-0.83;100.00;98028.44;5116955;28;20138;-73
2023/12/12 03:26:08;;;;;;;85.43;16.88;;;;;;;-0.99;100.00;98032.72;5114244;28;20098;-66
2023/12/12 03:28:34;;;;;;;46.50;15.13;;;;;;;-0.98;100.00;98023.53;5116846;28;20394;-69
2023/12/12 03:31:01;;;;;;;41.10;13.88;;;;;;;-1.11;100.00;98022.56;5114341;28;20094;-72
2023/12/12 03:33:28;;;;;;;50.00;15.10;;;;;;;-1.03;100.00;98026.38;5118092;28;20086;-70
2023/12/12 03:35:54;;;;;;;51.28;15.50;;;;;;;-1.21;100.00;98022.88;5117893;28;20071;-68
2023/12/12 03:38:20;;;;;;;44.70;14.93;;;;;;;-0.89;100.00;98018.16;5118171;28;20089;-73
2023/12/12 03:40:47;;;;;;;59.47;15.77;;;;;;;-0.95;100.00;98014.81;5119976;28;20138;-67
2023/12/12 03:43:13;;;;;;;77.70;16.83;;;;;;;-1.13;100.00;98019.41;5117733;28;20098;-73
2023/12/12 03:45:40;;;;;;;39.42;14.20;;;;;;;-0.89;100.00;98018.94;5120224;28;20142;-72
2023/12/12 03:48:07;;;;;;;45.05;16.02;;;;;;;-1.03;100.00;98027.16;5117906;28;20063;-67
2023/12/12 03:50:34;;;;;;;59.30;17.33;;;;;;;-0.86;100.00;98020.22;5120274;28;20434;-73
2023/12/12 03:53:00;;;;;;;47.78;15.02;;;;;;;-0.94;100.00;98019.09;5117829;28;20341;-72
2023/12/12 03:55:26;;;;;;;38.15;15.93;;;;;;;-1.05;100.00;98024.00;5120031;28;20091;-67
2023/12/12 03:57:53;;;;;;;54.28;16.13;;;;;;;-0.68;100.00;98016.38;5117610;28;20413;-71
2023/12/12 04:00:19;;;;;;;38.65;15.82;;;;;;;-0.87;100.00;98032.84;5120211;28;20138;-70
2023/12/12 04:02:45;;;;;;;46.78;14.90;;;;;;;-0.99;100.00;98028.09;5117724;28;20119;-66
2023/12/12 04:05:13;;;;;;;27.45;8.50;;;;;;;-0.98;100.00;98018.94;5119483;28;20051;-72
2023/12/12 04:07:40;;;;;;;48.47;16.00;;;;;;;-1.14;100.00;98014.34;5118511;28;20086;-72
2023/12/12 04:10:08;;;;;;;48.10;15.93;;;;;;;-0.79;100.00;98005.16;5117651;28;20056;-72
2023/12/12 04:12:35;;;;;;;52.60;18.85;;;;;;;-0.71;100.00;98009.72;5119661;28;20055;-72
2023/12/12 04:15:01;;;;;;;44.58;16.33;;;;;;;-0.88;100.00;98012.44;5117149;28;20052;-69
2023/12/12 04:17:28;;;;;;;44.35;17.73;;;;;;;-0.50;100.00;98004.47;5119723;28;20147;-72
2023/12/12 04:19:54;;;;;;;59.35;18.00;;;;;;;-0.74;100.00;98012.25;5117196;28;20091;-70
2023/12/12 04:22:21;;;;;;;44.10;16.75;;;;;;;-0.75;100.00;98016.06;5119692;28;20082;-72
2023/12/12 04:24:48;;;;;;;56.67;16.60;;;;;;;-0.73;100.00;98021.94;5117178;28;20055;-68
2023/12/12 04:27:14;;;;;;;48.50;16.70;;;;;;;-0.78;100.00;98022.88;5119645;28;20439;-67
2023/12/12 04:29:41;;;;;;;57.28;18.73;;;;;;;-0.92;100.00;98026.84;5117162;28;20087;-70
2023/12/12 04:32:07;;;;;;;61.38;16.55;;;;;;;-0.82;100.00;98024.63;5119594;28;20346;-71
2023/12/12 04:34:33;;;;;;;63.53;15.98;;;;;;;-0.64;100.00;98011.16;5119181;28;20416;-67
2023/12/12 04:37:01;;;;;;;63.20;17.52;;;;;;;-0.92;100.00;98016.09;5117193;28;20063;-72
2023/12/12 04:39:28;;;;;;;39.97;16.20;;;;;;;-0.86;100.00;98020.22;5119396;28;20089;-72
2023/12/12 04:41:54;;;;;;;71.28;18.40;;;;;;;-1.03;100.00;98013.72;5117056;28;20454;-70
2023/12/12 04:44:21;;;;;;;67.60;17.77;;;;;;;-0.71;100.00;98012.41;5118924;28;20087;-70
2023/12/12 04:46:47;;;;;;;61.42;17.98;;;;;;;-0.81;100.00;98009.25;5116706;28;20055;-73
2023/12/12 04:49:13;;;;;;;51.58;17.92;;;;;;;-0.82;100.00;98003.09;5119358;28;20051;-71
2023/12/12 04:51:40;;;;;;;53.60;16.20;;;;;;;-0.71;100.00;98003.56;5116915;28;20094;-66
2023/12/12 04:54:06;;;;;;;67.72;18.35;;;;;;;-0.65;100.00;97996.13;5119206;28;20051;-73
2023/12/12 04:56:33;;;;;;;58.40;14.95;;;;;;;-0.44;100.00;97998.91;5116688;28;20059;-70
2023/12/12 04:59:00;;;;;;;58.97;16.10;;;;;;;-0.76;100.00;98004.53;5119204;28;20397;-70
2023/12/12 05:01:27;;;;;;;45.85;17.00;;;;;;;-0.60;100.00;98006.69;5116587;28;20051;-72
2023/12/12 05:03:53;;;;;;;49.60;16.58;;;;;;;-0.87;100.00;97997.88;5117018;28;20073;-66
2023/12/12 05:06:19;;;;;;;38.60;15.85;;;;;;;-0.78;100.00;97995.19;5102210;28;20424;-70
2023/12/12 05:08:46;;;;;;;50.45;17.95;;;;;;;-0.80;100.00;97989.31;5116534;28;20066;-72
2023/12/12 05:11:13;;;;;;;52.53;19.23;;;;;;;-0.67;100.00;97990.25;5118695;28;20402;-72
2023/12/12 05:13:40;;;;;;;44.45;14.43;;;;;;;-0.89;100.00;97986.66;5116251;28;20051;-67
2023/12/12 05:16:08;;;;;;;41.00;16.63;;;;;;;-0.83;100.00;97974.63;5118568;28;20051;-72
2023/12/12 05:18:34;;;;;;;60.67;18.42;;;;;;;-0.54;100.00;97970.44;5116337;28;20322;-67
2023/12/12 05:21:02;;;;;;;65.03;17.17;;;;;;;-0.47;100.00;97976.09;5118783;28;20330;-67
2023/12/12 05:23:28;;;;;;;54.58;19.85;;;;;;;-0.46;100.00;97980.41;5116235;28;20087;-66
2023/12/12 05:25:55;;;;;;;56.25;17.15;;;;;;;-0.57;100.00;97990.69;5118697;28;20047;-70
2023/12/12 05:28:21;;;;;;;46.28;17.15;;;;;;;-0.35;100.00;97995.09;5116151;28;20055;-66
2023/12/12 05:30:48;;;;;;;54.25;18.25;;;;;;;-0.31;100.00;97989.84;5117354;28;20083;-67
2023/12/12 05:33:15;;;;;;;58.97;18.13;;;;;;;-0.41;100.00;98011.72;5117327;28;20070;-66
2023/12/12 05:35:41;;;;;;;57.28;19.85;;;;;;;-0.50;100.00;98019.81;5115362;28;20055;-68
2023/12/12 05:38:07;;;;;;;45.22;18.15;;;;;;;-0.30;100.00;98034.50;5118221;28;20074;-66
2023/12/12 05:40:34;;;;;;;47.47;16.15;;;;;;;-0.42;100.00;98043.25;5115714;28;20116;-69
2023/12/12 05:43:00;;;;;;;62.03;26.50;;;;;;;-0.16;100.00;98039.72;5118249;28;20063;-66
2023/12/12 05:45:26;;;;;;;57.72;20.30;;;;;;;-0.39;100.00;98055.31;5115627;28;20051;-63
2023/12/12 05:47:53;;;;;;;45.72;16.98;;;;;;;-0.51;100.00;98047.88;5117819;28;20120;-66
2023/12/12 05:50:20;;;;;;;50.20;17.95;;;;;;;-0.55;100.00;98049.63;5115547;28;20051;-63
2023/12/12 05:52:46;;;;;;;70.90;21.98;;;;;;;-0.02;100.00;98038.41;5118238;28;20066;-67
2023/12/12 05:55:13;;;;;;;68.22;19.52;;;;;;;-0.45;100.00;98051.19;5115245;28;20098;-69
2023/12/12 05:57:39;;;;;;;46.15;16.35;;;;;;;-0.57;100.00;98052.59;5117634;28;20328;-69
2023/12/12 06:00:07;;;;;;;48.38;18.45;;;;;;;-0.22;100.00;98049.09;5115470;28;20330;-66
2023/12/12 06:02:33;;;;;;;45.78;17.13;;;;;;;-0.09;100.00;98051.56;5115459;28;20113;-67
2023/12/12 06:05:00;;;;;;;55.72;19.17;;;;;;;-0.22;100.00;98065.25;5118062;28;20105;-66
2023/12/12 06:07:27;;;;;;;43.90;15.93;;;;;;;0.02;100.00;98056.63;5115592;28;20417;-71
2023/12/12 06:09:53;;;;;;;53.20;16.65;;;;;;;-0.09;100.00;98072.34;5118416;28;20350;-63
2023/12/12 06:12:50;;;;;;;64.53;18.92;;;;;;;-0.03;100.00;98088.00;5115356;28;20104;-66
2023/12/12 06:15:17;;;;;;;53.72;19.35;;;;;;;0.35;100.00;98092.63;5115273;28;20077;-64
2023/12/12 06:17:43;;;;;;;56.22;21.25;;;;;;;0.27;100.00;98120.44;5115263;28;20460;-64
2023/12/12 06:20:11;;;;;;;62.00;19.63;;;;;;;-0.19;100.00;98140.03;5115101;28;20051;-64
2023/12/12 06:22:38;;;;;;;46.00;16.52;;;;;;;-0.39;100.00;98144.94;5116955;28;20074;-67
2023/12/12 06:25:06;;;;;;;44.88;16.95;;;;;;;-0.27;100.00;98133.53;5114953;28;20107;-70
2023/12/12 06:27:32;;;;;;;46.30;15.77;;;;;;;-0.31;100.00;98119.91;5117156;28;20122;-68
2023/12/12 06:29:59;;;;;;;54.38;16.58;;;;;;;-0.28;100.00;98121.19;5114812;28;20055;-66
2023/12/12 06:32:25;;;;;;;45.03;16.48;;;;;;;-0.13;100.00;98106.44;5116986;28;20047;-67
2023/12/12 06:34:51;;;;;;;46.53;17.20;;;;;;;0.05;100.00;98113.34;5114800;28;20083;-64
2023/12/12 06:37:18;;;;;;;41.67;15.45;;;;;;;-0.02;100.00;98116.53;5117373;28;20094;-72
2023/12/12 06:39:45;;;;;;;43.83;17.27;;;;;;;-0.22;100.00;98122.59;5115049;28;20090;-66
2023/12/12 06:42:12;;;;;;;69.68;25.70;;;;;;;-0.14;100.00;98121.78;5117267;28;20097;-68
2023/12/12 06:44:38;;;;;;;51.45;18.42;;;;;;;-0.18;100.00;98123.53;5114985;28;20498;-65
2023/12/12 06:47:04;;;;;;;51.80;23.25;;;;;;;0.20;100.00;98125.50;5117654;28;20086;-70
2023/12/12 06:49:32;;;;;;;46.08;17.20;;;;;;;-0.19;100.00;98124.66;5114885;28;20055;-71
2023/12/12 06:52:00;;;;;;;43.42;17.17;;;;;;;-0.13;100.00;98130.69;5114733;28;20052;-64
2023/12/12 06:54:28;;;;;;;47.35;16.67;;;;;;;-0.08;100.00;98125.09;5117142;28;20082;-67
2023/12/12 06:56:55;;;;;;;39.67;16.67;;;;;;;-0.16;100.00;98124.03;5114588;28;20059;-67
2023/12/12 06:59:21;;;;;;;49.05;17.02;;;;;;;0.08;100.00;98120.78;5117176;28;20047;-65
2023/12/12 07:01:47;;;;;;;46.92;18.42;;;;;;;0.09;100.00;98121.59;5114483;28;20474;-71
2023/12/12 07:04:14;;;;;;;55.40;19.42;;;;;;;0.02;100.00;98123.97;5117104;28;20113;-70
2023/12/12 07:06:41;;;;;;;47.95;17.90;;;;;;;-0.05;100.00;98119.09;5114490;28;20089;-66
2023/12/12 07:09:10;;;;;;;57.67;19.05;;;;;;;0.18;100.00;98122.34;5117354;28;20081;-69
2023/12/12 07:11:37;;;;;;;54.10;19.90;;;;;;;0.24;100.00;98129.16;5114515;28;20121;-66
2023/12/12 07:14:04;;;;;;;53.47;20.13;;;;;;;0.03;100.00;98136.34;5116721;28;20078;-68
2023/12/12 07:16:30;;;;;;;48.00;16.63;;;;;;;0.12;100.00;98129.03;5114030;28;20051;-67
2023/12/12 07:18:58;;;;;;;38.58;15.90;;;;;;;-0.07;100.00;98134.75;5114435;28;20083;-64
2023/12/12 07:21:24;;;;;;;47.83;16.13;;;;;;;-0.08;100.00;98136.66;5117027;28;20102;-64
2023/12/12 07:23:51;;;;;;;74.25;17.40;;;;;;;-0.07;100.00;98137.47;5114585;28;20082;-68
2023/12/12 07:26:21;;;;;;;45.97;15.20;;;;;;;-0.22;100.00;98136.06;5116566;28;20062;-70
2023/12/12 07:28:48;;;;;;;44.03;17.20;;;;;;;-0.08;100.00;98125.91;5114664;28;20398;-69
2023/12/12 07:31:14;;;;;;;46.15;19.05;;;;;;;-0.07;100.00;98121.28;5117011;28;20052;-64
2023/12/12 07:33:41;;;;;;;53.10;17.20;;;;;;;0.03;100.00;98112.88;5114582;28;20438;-64
2023/12/12 07:36:08;;;;;;;41.67;14.98;;;;;;;-0.10;100.00;98111.97;5116708;28;20077;-70
2023/12/12 07:38:34;;;;;;;44.65;17.02;;;;;;;0.04;100.00;98111.78;5114389;28;20444;-69
2023/12/12 07:41:01;;;;;;;48.10;18.70;;;;;;;-0.02;100.00;98108.44;5116936;28;20048;-63
2023/12/12 07:43:27;;;;;;;51.08;18.55;;;;;;;-0.08;100.00;98111.63;5114380;28;20130;-64
2023/12/12 07:45:54;;;;;;;49.20;17.98;;;;;;;-0.10;100.00;98106.59;5114979;28;20051;-72
2023/12/12 07:48:21;;;;;;;51.35;17.48;;;;;;;0.07;100.00;98097.66;5116570;28;20069;-71
2023/12/12 07:50:47;;;;;;;47.85;18.30;;;;;;;0.16;100.00;98108.41;5114346;28;20051;-64
2023/12/12 07:53:13;;;;;;;44.75;14.55;;;;;;;0.18;100.00;98115.06;5116330;28;20135;-68
2023/12/12 07:55:40;;;;;;;47.95;18.77;;;;;;;0.39;100.00;98117.03;5113801;28;20097;-72
2023/12/12 07:58:07;;;;;;;42.53;18.50;;;;;;;0.16;100.00;98130.75;5116281;28;20432;-65
2023/12/12 08:00:33;;;;;;;48.70;18.92;;;;;;;0.17;100.00;98148.53;5114151;28;20047;-70
2023/12/12 08:03:01;;;;;;;48.35;16.92;;;;;;;0.19;100.00;98157.06;5116369;28;20431;-66
2023/12/12 08:05:27;;;;;;;36.40;15.82;;;;;;;0.08;100.00;98166.59;5113832;28;20055;-68
2023/12/12 08:07:53;;;;;;;36.17;14.90;;;;;;;0.04;100.00;98165.66;5116868;28;20087;-65
2023/12/12 08:10:20;;;;;;;33.60;14.70;;;;;;;0.36;100.00;98160.81;5114286;28;20120;-71
2023/12/12 08:12:46;;;;;;;37.10;18.40;;;;;;;0.34;100.00;98173.84;5116120;28;20055;-68
2023/12/12 08:15:13;;;;;;;27.13;11.73;;;;;;;0.23;100.00;98194.94;5114944;28;20543;-69
2023/12/12 08:17:40;;;;;;;35.63;14.40;;;;;;;0.87;100.00;98192.22;5113953;28;20052;-70
2023/12/12 08:20:08;;;;;;;36.03;15.77;;;;;;;0.92;100.00;98237.91;5118762;28;20047;-68
2023/12/12 08:22:35;;;;;;;33.03;13.07;;;;;;;0.34;100.00;98271.69;5117517;28;20058;-64
2023/12/12 08:25:01;;;;;;;28.60;13.98;;;;;;;0.19;100.00;98274.88;5120288;28;20055;-69
2023/12/12 08:27:28;;;;;;;36.97;14.85;;;;;;;0.40;100.00;98265.03;5117505;28;20093;-72
2023/12/12 08:29:54;;;;;;;29.30;14.40;;;;;;;0.52;100.00;98261.66;5120285;28;20059;-68
2023/12/12 08:32:21;;;;;;;26.63;12.00;;;;;;;0.43;100.00;98263.59;5117839;28;20079;-66
2023/12/12 08:34:47;;;;;;;24.67;12.60;;;;;;;0.33;100.00;98277.41;5120109;28;20059;-72
2023/12/12 08:37:16;;;;;;;23.05;10.23;;;;;;;0.13;100.00;98286.91;5117906;28;20051;-65
2023/12/12 08:39:42;;;;;;;25.77;13.10;;;;;;;0.01;100.00;98270.59;5120399;28;20138;-65
2023/12/12 08:42:09;;;;;;;26.27;12.10;;;;;;;0.06;100.00;98251.56;5122531;28;20341;-68
2023/12/12 08:44:35;;;;;;;32.40;13.10;;;;;;;0.31;100.00;98244.59;5121558;28;20052;-68
2023/12/12 08:47:02;;;;;;;22.92;10.43;;;;;;;0.10;100.00;98255.22;5124230;28;20356;-64
2023/12/12 08:49:28;;;;;;;32.17;14.27;;;;;;;-0.08;100.00;98249.81;5122545;28;20120;-67
2023/12/12 08:51:55;;;;;;;27.13;11.90;;;;;;;-0.07;100.00;98235.28;5124278;28;20055;-61
2023/12/12 08:54:22;;;;;;;29.48;11.48;;;;;;;-0.11;100.00;98220.81;5121786;28;20062;-63
2023/12/12 08:56:52;;;;;;;25.65;11.35;;;;;;;0.11;100.00;98202.91;5122816;28;20060;-70
2023/12/12 08:59:21;;;;;;;24.15;11.82;;;;;;;-0.09;100.00;98207.06;5119903;28;20056;-66
2023/12/12 09:01:47;;;;;;;28.23;14.40;;;;;;;0.24;100.00;98207.34;5122486;28;20143;-60
2023/12/12 09:04:16;;;;;;;25.42;12.63;;;;;;;-0.05;100.00;98208.78;5119666;28;20047;-64
2023/12/12 09:06:43;;;;;;;31.58;11.68;;;;;;;-0.06;100.00;98201.81;5122868;28;20051;-70
2023/12/12 09:09:11;;;;;;;27.40;12.45;;;;;;;0.05;100.00;98188.00;5122599;28;20052;-61
2023/12/12 09:11:39;;;;;;;22.42;9.85;;;;;;;-0.18;100.00;98176.63;5119334;28;20120;-66
2023/12/12 09:14:05;;;;;;;28.58;12.18;;;;;;;-0.10;100.00;98162.34;5120253;28;20434;-68
2023/12/12 09:16:32;;;;;;;24.48;11.73;;;;;;;0.08;100.00;98160.44;5116998;28;20070;-63
2023/12/12 09:18:58;;;;;;;25.20;12.02;;;;;;;-0.04;100.00;98174.53;5119096;28;20059;-64
2023/12/12 09:21:25;;;;;;;23.73;10.75;;;;;;;0.23;100.00;98168.81;5116954;28;20074;-68
2023/12/12 09:23:51;;;;;;;26.58;12.05;;;;;;;0.63;100.00;98162.31;5119118;28;20401;-70
2023/12/12 09:26:18;;;;;;;21.42;10.13;;;;;;;0.07;100.00;98196.56;5116501;28;20074;-68
2023/12/12 09:28:47;;;;;;;23.15;11.35;;;;;;;0.10;100.00;98193.22;5119000;28;20058;-71
2023/12/12 09:31:13;;;;;;;24.80;12.10;;;;;;;0.47;100.00;98194.44;5115509;28;20119;-64
2023/12/12 09:33:39;;;;;;;22.77;10.05;;;;;;;0.65;100.00;98200.56;5119334;28;20052;-68
2023/12/12 09:36:06;;;;;;;22.77;10.98;;;;;;;0.81;100.00;98212.41;5116324;28;20051;-74
2023/12/12 09:38:33;;;;;;;26.50;11.35;;;;;;;0.63;100.00;98254.84;5116803;28;20341;-67
2023/12/12 09:41:00;;;;;;;21.58;11.00;;;;;;;0.51;100.00;98264.69;5118675;28;20103;-73
2023/12/12 09:43:28;;;;;;;20.92;11.02;;;;;;;0.73;100.00;98263.69;5116241;28;20067;-68
2023/12/12 09:45:57;;;;;;;22.83;9.35;;;;;;;0.13;100.00;98276.13;5118964;28;20373;-65
2023/12/12 09:48:25;;;;;;;89.53;13.15;;;;;;;0.32;100.00;98255.03;5116418;28;20091;-69
2023/12/12 09:50:54;;;;;;;19.90;9.50;;;;;;;0.45;100.00;98258.66;5118473;28;20056;-66
2023/12/12 09:53:21;;;;;;;18.63;9.52;;;;;;;0.12;100.00;98277.25;5116195;28;20048;-71
2023/12/12 09:55:49;;;;;;;20.33;9.90;;;;;;;0.22;100.00;98266.16;5118096;28;20091;-68
2023/12/12 09:58:15;;;;;;;21.20;10.40;;;;;;;0.08;100.00;98252.06;5115897;28;20058;-66
2023/12/12 10:00:41;;;;;;;21.70;10.88;;;;;;;0.36;100.00;98237.09;5118617;28;20055;-71
2023/12/12 10:03:08;;;;;;;21.80;10.23;;;;;;;0.23;100.00;98232.69;5115819;28;20066;-61
2023/12/12 10:05:38;;;;;;;22.13;10.50;;;;;;;0.78;100.00;98241.94;5115343;28;20088;-66
2023/12/12 10:08:05;;;;;;;22.10;11.35;;;;;;;1.45;100.00;98261.97;5117427;28;20068;-65
2023/12/12 10:10:32;;;;;;;20.73;9.95;;;;;;;1.01;100.00;98318.84;5115532;28;20051;-62
2023/12/12 10:12:58;;;;;;;24.67;10.65;;;;;;;1.42;100.00;98347.13;5117747;28;20083;-68
2023/12/12 10:15:26;;;;;;;31.63;9.73;;;;;;;3.19;100.00;98362.19;5115309;28;20052;-64
2023/12/12 10:17:57;;;;;;;20.50;10.77;;;;;;;3.60;100.00;98371.28;5117549;28;20051;-66
2023/12/12 10:20:25;;;;;;;33.55;10.40;;;;;;;5.03;100.00;98041.41;5115075;28;20422;-62
2023/12/12 10:22:53;;;;;;;27.83;13.80;;;;;;;5.31;100.00;97415.44;5117635;28;20138;-66
2023/12/12 10:25:22;;;;;;;31.15;10.10;;;;;;;6.53;100.00;97144.97;5115171;28;20074;-59
2023/12/12 10:27:52;;;;;;;23.70;10.73;;;;;;;6.23;100.00;97033.72;5116789;28;20060;-64
2023/12/12 10:30:20;;;;;;;16.45;8.25;;;;;;;3.92;100.00;97045.69;5116368;28;20461;-64
2023/12/12 10:32:46;;;;;;;13.13;7.57;;;;;;;2.52;100.00;97111.56;5114990;28;20056;-66
2023/12/12 10:35:12;;;;;;;15.05;8.05;;;;;;;2.61;100.00;97354.81;5117145;28;20052;-68
2023/12/12 10:37:39;;;;;;;17.80;8.73;;;;;;;1.98;100.00;97526.06;5114946;28;20059;-63
2023/12/12 10:40:16;;;;;;;16.27;8.18;;;;;;;1.99;100.00;97727.66;5117348;28;20132;-65
2023/12/12 10:42:42;;;;;;;14.35;8.73;;;;;;;1.92;100.00;97883.41;5114250;28;20047;-67
2023/12/12 10:45:12;;;;;;;16.25;8.52;;;;;;;1.69;100.00;97951.41;5117235;28;20167;-67
2023/12/12 10:47:41;;;;;;;16.33;8.38;;;;;;;1.63;100.00;98093.22;5114485;28;20051;-57
2023/12/12 10:50:11;;;;;;;17.90;9.88;;;;;;;1.86;100.00;98167.41;5117301;28;20051;-66
2023/12/12 10:52:39;;;;;;;18.23;9.18;;;;;;;1.77;100.00;98199.13;5114693;28;20376;-66
2023/12/12 10:55:08;;;;;;;21.45;9.90;;;;;;;2.20;100.00;98235.00;5114565;28;20071;-58
2023/12/12 10:57:36;;;;;;;19.98;10.02;;;;;;;2.15;100.00;98211.69;5116925;28;20179;-64
2023/12/12 11:00:11;;;;;;;18.63;9.13;;;;;;;1.43;100.00;98232.56;5114426;28;20090;-63
2023/12/12 11:02:39;;;;;;;18.58;9.85;;;;;;;1.72;100.00;98299.28;5116387;28;20421;-63
2023/12/12 11:05:07;;;;;;;16.27;9.93;;;;;;;2.10;100.00;98291.09;5114024;28;20342;-63
2023/12/12 11:07:34;;;;;;;17.00;9.02;;;;;;;1.76;100.00;98284.00;5116612;28;20066;-62
2023/12/12 11:10:05;;;;;;;17.58;9.65;;;;;;;2.01;100.00;98295.78;5114302;28;20055;-64